Time;durP1;ratioP1;P1;durP2;ratioP2;P2;SDS_P1;SDS_P2;PMS_P1;PMS_P2;Temp;Humidity;BMP_temperature;BMP_pressure;BME280_temperature;BME280_humidity;BME280_pressure;Samples;Min_cycle;Max_cycle;Signal;HPM_P1;HPM_P2
2021/04/29 00:01:06;;;;;;;16.27;11.93;;;8.70;68.50;;;;;;5063339;28;20157;-81
2021/04/29 00:03:36;;;;;;;21.77;13.00;;;8.70;68.60;;;;;;5065661;28;20550;-80
2021/04/29 00:06:05;;;;;;;20.85;13.18;;;8.60;69.00;;;;;;5059278;28;20039;-83
2021/04/29 00:08:33;;;;;;;22.27;13.45;;;8.70;69.00;;;;;;5076287;28;20528;-80
2021/04/29 00:10:59;;;;;;;24.67;14.57;;;8.70;69.40;;;;;;5079593;28;20088;-81
2021/04/29 00:13:25;;;;;;;21.88;14.10;;;8.70;69.70;;;;;;5083544;28;20037;-82
2021/04/29 00:15:51;;;;;;;21.67;13.88;;;8.80;69.20;;;;;;5081176;28;20070;-81
2021/04/29 00:18:18;;;;;;;25.92;12.73;;;8.80;69.30;;;;;;5079422;28;20032;-81
2021/04/29 00:20:44;;;;;;;20.55;13.13;;;8.80;68.60;;;;;;5089776;28;20274;-80
2021/04/29 00:23:10;;;;;;;17.90;12.23;;;8.80;68.60;;;;;;5059625;28;20487;-84
2021/04/29 00:25:36;;;;;;;18.25;12.00;;;8.80;68.80;;;;;;5066161;28;20048;-80
2021/04/29 00:28:02;;;;;;;25.55;12.63;;;8.90;69.10;;;;;;5062058;28;20089;-83
2021/04/29 00:30:30;;;;;;;24.20;13.13;;;8.80;69.00;;;;;;5108702;27;20068;-81
2021/04/29 00:32:56;;;;;;;23.13;13.25;;;8.80;69.10;;;;;;5084388;28;20040;-83
2021/04/29 00:35:22;;;;;;;26.15;12.82;;;8.80;68.90;;;;;;5075401;28;21455;-81
2021/04/29 00:37:48;;;;;;;19.67;13.27;;;8.90;68.80;;;;;;5079234;28;20140;-81
2021/04/29 00:40:15;;;;;;;26.10;13.45;;;8.90;68.60;;;;;;5066886;28;20411;-84
2021/04/29 00:42:43;;;;;;;24.95;12.90;;;8.90;68.70;;;;;;5072134;28;20055;-81
2021/04/29 00:45:11;;;;;;;18.88;12.75;;;8.90;68.80;;;;;;5067952;28;20278;-82
2021/04/29 00:47:38;;;;;;;18.67;12.38;;;8.90;68.90;;;;;;5069559;28;20054;-85
2021/04/29 00:50:10;;;;;;;20.60;13.38;;;8.90;68.60;;;;;;5066397;28;20065;-83
2021/04/29 00:52:36;;;;;;;25.73;13.07;;;8.90;68.60;;;;;;5074091;28;20040;-81
2021/04/29 00:55:03;;;;;;;20.90;12.48;;;8.90;68.70;;;;;;5037772;28;20376;-81
2021/04/29 00:57:29;;;;;;;16.85;12.15;;;8.90;68.60;;;;;;5062456;28;20051;-85
2021/04/29 00:59:55;;;;;;;22.70;13.60;;;8.90;68.70;;;;;;5032547;28;20033;-81
2021/04/29 01:02:24;;;;;;;20.55;12.27;;;8.90;68.60;;;;;;5068543;28;20447;-84
2021/04/29 01:04:53;;;;;;;20.63;13.13;;;8.90;68.90;;;;;;5069471;28;20040;-84
2021/04/29 01:07:22;;;;;;;24.85;13.77;;;8.90;68.90;;;;;;5072889;28;20519;-81
2021/04/29 01:10:08;;;;;;;20.88;13.77;;;8.90;68.80;;;;;;5070695;28;20854;-82
2021/04/29 01:12:40;;;;;;;25.33;13.85;;;8.80;68.90;;;;;;5075390;28;20135;-83
2021/04/29 01:15:07;;;;;;;19.75;12.75;;;8.90;69.00;;;;;;5080861;28;20028;-84
2021/04/29 01:17:36;;;;;;;24.48;14.43;;;8.90;69.10;;;;;;5072274;28;20519;-83
2021/04/29 01:20:07;;;;;;;20.02;13.35;;;8.90;69.00;;;;;;5070637;28;20029;-80
2021/04/29 01:22:45;;;;;;;22.95;13.98;;;8.90;69.10;;;;;;5073765;28;20449;-81
2021/04/29 01:25:15;;;;;;;33.00;12.90;;;8.90;69.10;;;;;;5065252;28;20048;-83
2021/04/29 01:27:42;;;;;;;30.10;13.57;;;8.80;69.30;;;;;;5066863;28;20040;-83
2021/04/29 01:30:11;;;;;;;25.77;13.23;;;8.80;69.40;;;;;;5069679;28;20028;-82
2021/04/29 01:32:37;;;;;;;23.05;13.30;;;8.80;69.70;;;;;;5078572;28;20028;-85
2021/04/29 01:35:08;;;;;;;23.67;13.00;;;8.80;69.60;;;;;;5045577;28;20032;-82
2021/04/29 01:37:34;;;;;;;18.45;12.38;;;8.80;70.10;;;;;;5102568;27;20462;-82
2021/04/29 01:40:02;;;;;;;18.58;13.70;;;8.80;70.30;;;;;;5089505;28;20041;-81
2021/04/29 01:42:29;;;;;;;20.45;14.00;;;8.70;70.10;;;;;;5080958;28;20028;-83
2021/04/29 01:44:55;;;;;;;20.60;13.43;;;8.70;70.90;;;;;;5076066;28;20119;-81
2021/04/29 01:47:21;;;;;;;19.35;13.20;;;8.70;71.50;;;;;;5081532;28;20466;-82
2021/04/29 01:49:48;;;;;;;20.90;13.45;;;8.70;72.20;;;;;;5061471;28;20197;-79
2021/04/29 01:52:14;;;;;;;19.90;14.90;;;8.60;72.30;;;;;;5071939;28;20123;-82
2021/04/29 01:54:41;;;;;;;23.27;13.95;;;8.60;73.40;;;;;;5066562;28;20627;-79
2021/04/29 01:57:07;;;;;;;23.40;14.13;;;8.50;73.80;;;;;;5053145;28;20036;-82
2021/04/29 01:59:33;;;;;;;23.50;14.18;;;8.50;74.50;;;;;;5066357;28;20153;-78
2021/04/29 02:01:59;;;;;;;24.55;14.75;;;8.40;75.60;;;;;;5058689;28;20031;-80
2021/04/29 02:04:25;;;;;;;24.15;14.18;;;8.40;75.60;;;;;;5056248;28;20043;-83
2021/04/29 02:06:51;;;;;;;25.55;15.48;;;8.30;76.10;;;;;;5066224;28;20131;-83
2021/04/29 02:09:17;;;;;;;25.17;14.90;;;8.30;76.50;;;;;;5070681;28;20100;-79
2021/04/29 02:11:54;;;;;;;25.45;15.38;;;8.20;76.90;;;;;;5063914;28;20060;-79
2021/04/29 02:14:29;;;;;;;26.15;15.50;;;8.20;78.50;;;;;;5078440;28;20059;-80
2021/04/29 02:16:58;;;;;;;24.48;15.25;;;8.10;77.30;;;;;;5077128;28;20050;-80
2021/04/29 02:19:27;;;;;;;25.20;16.52;;;8.20;77.50;;;;;;5076841;28;20521;-80
2021/04/29 02:21:53;;;;;;;22.05;15.35;;;8.10;79.00;;;;;;5074384;28;20044;-81
2021/04/29 02:24:20;;;;;;;21.83;15.05;;;8.10;78.80;;;;;;5069519;28;20535;-82
2021/04/29 02:26:49;;;;;;;20.77;15.90;;;8.10;78.40;;;;;;5075355;28;20118;-83
2021/04/29 02:29:16;;;;;;;30.60;16.80;;;8.10;78.10;;;;;;5078607;28;20481;-82
2021/04/29 02:31:42;;;;;;;24.70;15.98;;;8.10;78.40;;;;;;5075717;28;20024;-83
2021/04/29 02:34:09;;;;;;;25.00;16.67;;;8.10;78.30;;;;;;5078198;28;20068;-83
2021/04/29 02:36:36;;;;;;;25.13;16.42;;;8.10;78.70;;;;;;5068036;28;20036;-80
2021/04/29 02:39:05;;;;;;;23.88;16.73;;;8.00;78.60;;;;;;5084077;28;20036;-82
2021/04/29 02:41:32;;;;;;;27.73;17.10;;;8.10;79.30;;;;;;5067041;28;20068;-82
2021/04/29 02:44:00;;;;;;;31.80;17.40;;;8.00;78.50;;;;;;5072061;28;20056;-84
2021/04/29 02:46:27;;;;;;;22.83;16.67;;;8.00;78.50;;;;;;5053489;28;20403;-83
2021/04/29 02:48:52;;;;;;;25.75;16.08;;;8.00;79.20;;;;;;5068969;28;21701;-81
2021/04/29 02:51:20;;;;;;;26.10;16.85;;;8.00;79.10;;;;;;5047820;28;20036;-82
2021/04/29 02:53:46;;;;;;;26.38;17.10;;;8.00;79.60;;;;;;5064985;28;20048;-82
2021/04/29 02:56:12;;;;;;;23.80;16.20;;;8.00;79.50;;;;;;5068781;28;20055;-83
2021/04/29 02:58:48;;;;;;;26.77;16.95;;;7.90;79.60;;;;;;5070255;28;20170;-82
2021/04/29 03:01:15;;;;;;;28.92;18.77;;;8.00;80.30;;;;;;5083340;28;20040;-82
2021/04/29 03:03:43;;;;;;;27.60;18.58;;;8.00;80.00;;;;;;5106904;27;20051;-81
2021/04/29 03:06:10;;;;;;;25.83;17.92;;;8.00;80.10;;;;;;5065577;28;20055;-82
2021/04/29 03:08:36;;;;;;;25.85;18.67;;;7.90;80.10;;;;;;5064276;28;20031;-80
2021/04/29 03:11:04;;;;;;;28.23;18.63;;;8.00;80.40;;;;;;5079532;28;20451;-80
2021/04/29 03:13:29;;;;;;;24.98;17.70;;;7.90;80.40;;;;;;5070344;28;20028;-82
2021/04/29 03:15:55;;;;;;;31.50;18.63;;;7.90;80.40;;;;;;5070341;28;20048;-79
2021/04/29 03:18:21;;;;;;;27.67;18.30;;;7.90;80.50;;;;;;5084567;27;20737;-81
2021/04/29 03:20:47;;;;;;;26.77;17.80;;;7.90;80.70;;;;;;5076656;28;20049;-80
2021/04/29 03:23:13;;;;;;;27.80;18.10;;;7.90;80.70;;;;;;5080805;28;20524;-80
2021/04/29 03:25:39;;;;;;;29.10;18.60;;;7.90;80.70;;;;;;5071665;28;20062;-81
2021/04/29 03:28:05;;;;;;;32.10;19.88;;;7.90;81.60;;;;;;5068076;28;20028;-80
2021/04/29 03:30:31;;;;;;;28.17;19.73;;;7.80;81.40;;;;;;5051754;28;20063;-81
2021/04/29 03:32:57;;;;;;;31.80;21.00;;;7.90;81.60;;;;;;5071383;28;20078;-80
2021/04/29 03:35:23;;;;;;;33.28;22.13;;;7.80;81.80;;;;;;5081291;28;20399;-81
2021/04/29 03:37:49;;;;;;;33.67;20.23;;;7.90;82.30;;;;;;5052844;28;20139;-79
2021/04/29 03:40:15;;;;;;;32.35;21.73;;;7.90;82.10;;;;;;5076251;28;20036;-79
2021/04/29 03:42:41;;;;;;;35.17;22.92;;;7.90;81.90;;;;;;5097279;27;20052;-80
2021/04/29 03:45:07;;;;;;;35.25;21.95;;;7.90;82.30;;;;;;5067843;28;20037;-80
2021/04/29 03:47:33;;;;;;;33.38;21.90;;;7.90;81.90;;;;;;5079075;28;20036;-80
2021/04/29 03:50:02;;;;;;;30.50;20.95;;;7.90;82.10;;;;;;5055478;28;20097;-81
2021/04/29 03:52:27;;;;;;;38.22;23.27;;;7.90;82.30;;;;;;5067094;28;20759;-79
2021/04/29 03:54:53;;;;;;;34.08;23.05;;;7.90;82.40;;;;;;5102790;27;20032;-80
2021/04/29 03:57:19;;;;;;;37.83;23.63;;;7.80;82.50;;;;;;5084931;28;20047;-83
2021/04/29 03:59:45;;;;;;;38.05;22.63;;;7.80;82.80;;;;;;5081136;28;20689;-81
2021/04/29 04:02:11;;;;;;;31.83;22.65;;;7.80;82.40;;;;;;5057991;28;20028;-78
2021/04/29 04:04:37;;;;;;;35.92;22.48;;;7.80;83.00;;;;;;5087597;28;20036;-79
2021/04/29 04:07:03;;;;;;;35.13;23.58;;;7.70;82.90;;;;;;5077399;28;20441;-80
2021/04/29 04:09:29;;;;;;;37.25;25.05;;;7.70;83.30;;;;;;5079645;28;20118;-79
2021/04/29 04:11:55;;;;;;;34.65;23.55;;;7.70;83.10;;;;;;5089994;28;20055;-78
2021/04/29 04:14:21;;;;;;;34.65;23.40;;;7.70;84.00;;;;;;5047176;28;20036;-80
2021/04/29 04:16:47;;;;;;;39.75;23.65;;;7.60;83.90;;;;;;5062768;28;20040;-80
2021/04/29 04:19:12;;;;;;;35.25;22.95;;;7.70;84.00;;;;;;5061245;28;20037;-79
2021/04/29 04:21:39;;;;;;;37.00;23.88;;;7.60;83.60;;;;;;5038156;28;20387;-80
2021/04/29 04:24:08;;;;;;;35.30;23.08;;;7.80;84.50;;;;;;5061306;28;20047;-79
2021/04/29 04:26:33;;;;;;;31.50;21.70;;;7.70;84.40;;;;;;5080082;28;20036;-80
2021/04/29 04:28:59;;;;;;;33.50;22.30;;;7.70;84.70;;;;;;5070765;28;20455;-81
2021/04/29 04:31:25;;;;;;;38.80;23.52;;;7.70;84.90;;;;;;5095317;27;20033;-81
2021/04/29 04:33:51;;;;;;;34.88;22.65;;;7.70;84.60;;;;;;5064634;28;20423;-80
2021/04/29 04:36:18;;;;;;;39.65;23.40;;;7.70;85.20;;;;;;5066564;28;20055;-80
2021/04/29 04:38:44;;;;;;;41.88;24.02;;;7.80;85.00;;;;;;5100222;27;20043;-80
2021/04/29 04:41:10;;;;;;;36.00;23.30;;;7.80;84.90;;;;;;5067781;28;20032;-81
2021/04/29 04:43:36;;;;;;;33.20;23.10;;;7.80;84.60;;;;;;5103334;27;20506;-79
2021/04/29 04:46:02;;;;;;;35.15;23.15;;;7.80;84.80;;;;;;5085121;27;20139;-80
2021/04/29 04:48:27;;;;;;;39.95;23.40;;;7.90;84.60;;;;;;5103129;27;20035;-80
2021/04/29 04:50:53;;;;;;;36.17;24.38;;;7.90;84.30;;;;;;5076456;28;20119;-80
2021/04/29 04:53:20;;;;;;;39.00;23.10;;;7.90;84.30;;;;;;5076126;28;20047;-80
2021/04/29 04:55:49;;;;;;;39.63;25.23;;;8.00;84.40;;;;;;5049846;28;20071;-79
2021/04/29 04:58:18;;;;;;;37.35;24.05;;;8.00;84.60;;;;;;5069963;28;20033;-80
2021/04/29 05:00:47;;;;;;;34.60;22.55;;;8.10;84.60;;;;;;5079371;28;20483;-78
2021/04/29 05:03:13;;;;;;;32.40;22.13;;;8.10;84.60;;;;;;5073992;28;20039;-79
2021/04/29 05:05:40;;;;;;;32.25;22.35;;;8.10;84.60;;;;;;5063394;27;20312;-80
2021/04/29 05:08:06;;;;;;;36.95;22.33;;;8.10;84.60;;;;;;5071875;28;20067;-80
2021/04/29 05:10:33;;;;;;;37.22;23.08;;;8.20;84.10;;;;;;5097769;27;20082;-80
2021/04/29 05:13:02;;;;;;;34.47;23.13;;;8.20;84.10;;;;;;5047044;28;20040;-80
2021/04/29 05:15:29;;;;;;;45.38;24.50;;;8.20;83.90;;;;;;5069439;28;20043;-79
2021/04/29 05:17:55;;;;;;;40.97;23.65;;;8.30;84.00;;;;;;5079316;28;20106;-80
2021/04/29 05:20:21;;;;;;;32.33;23.88;;;8.30;83.90;;;;;;5084589;28;20617;-80
2021/04/29 05:22:48;;;;;;;35.47;21.88;;;8.30;84.20;;;;;;5051844;28;20032;-79
2021/04/29 05:25:14;;;;;;;35.67;21.70;;;8.30;84.20;;;;;;5066407;28;20036;-78
2021/04/29 05:27:40;;;;;;;31.17;22.33;;;8.40;84.20;;;;;;5101803;27;20370;-79
2021/04/29 05:30:07;;;;;;;33.38;22.33;;;8.40;84.30;;;;;;5070951;28;20414;-79
2021/04/29 05:32:33;;;;;;;34.13;21.83;;;8.50;84.10;;;;;;5075286;28;20037;-79
2021/04/29 05:34:59;;;;;;;36.35;22.38;;;8.50;84.30;;;;;;5086916;28;20167;-79
2021/04/29 05:37:25;;;;;;;35.47;22.08;;;8.50;84.20;;;;;;5090278;28;21127;-79
2021/04/29 05:39:51;;;;;;;32.22;22.38;;;8.60;84.20;;;;;;5071692;28;20801;-79
2021/04/29 05:42:18;;;;;;;37.35;22.92;;;8.60;84.30;;;;;;5094589;28;20032;-80
2021/04/29 05:44:44;;;;;;;35.50;23.00;;;8.60;84.50;;;;;;5065764;28;20738;-80
2021/04/29 05:47:10;;;;;;;34.83;23.20;;;8.60;84.30;;;;;;5051495;28;20035;-79
2021/04/29 05:49:36;;;;;;;35.60;22.75;;;8.60;84.50;;;;;;5077330;28;20048;-80
2021/04/29 05:52:01;;;;;;;34.65;23.40;;;8.60;84.70;;;;;;5092854;28;20494;-79
2021/04/29 05:54:27;;;;;;;36.50;23.95;;;8.60;84.80;;;;;;5077275;28;20380;-78
2021/04/29 05:56:54;;;;;;;36.28;23.83;;;8.60;85.20;;;;;;5077647;28;20346;-82
2021/04/29 05:59:20;;;;;;;37.15;23.38;;;8.60;84.90;;;;;;5056041;28;20070;-79
2021/04/29 06:01:46;;;;;;;35.75;23.50;;;8.60;84.90;;;;;;5069669;28;20036;-78
2021/04/29 06:04:12;;;;;;;40.50;23.48;;;8.70;84.80;;;;;;5068202;28;20032;-81
2021/04/29 06:06:38;;;;;;;33.97;23.55;;;8.70;84.80;;;;;;5040544;28;20101;-81
2021/04/29 06:09:04;;;;;;;33.33;23.98;;;8.80;84.70;;;;;;5061138;28;20307;-78
2021/04/29 06:11:30;;;;;;;37.00;24.13;;;8.80;84.90;;;;;;5092991;28;20060;-80
2021/04/29 06:13:56;;;;;;;35.13;24.67;;;8.90;84.90;;;;;;5049745;28;20067;-82
2021/04/29 06:16:22;;;;;;;34.05;24.77;;;8.90;84.50;;;;;;5074172;28;20334;-81
2021/04/29 06:18:48;;;;;;;38.78;24.67;;;8.90;84.80;;;;;;5108004;28;20098;-78
2021/04/29 06:21:13;;;;;;;45.92;27.40;;;9.00;85.00;;;;;;5071453;28;20280;-78
2021/04/29 06:23:40;;;;;;;38.53;26.48;;;9.00;84.70;;;;;;5083144;28;20046;-80
2021/04/29 06:26:05;;;;;;;40.20;27.58;;;9.10;84.50;;;;;;5089482;28;20032;-82
2021/04/29 06:28:32;;;;;;;39.60;26.35;;;9.20;84.30;;;;;;5074661;28;20348;-81
2021/04/29 06:30:58;;;;;;;42.65;26.75;;;9.20;84.60;;;;;;5080861;27;20450;-81
2021/04/29 06:33:24;;;;;;;40.33;26.90;;;9.30;84.40;;;;;;5084323;28;20128;-81
2021/04/29 06:35:51;;;;;;;39.42;26.67;;;9.40;84.10;;;;;;5097687;27;20085;-82
2021/04/29 06:38:17;;;;;;;38.75;27.48;;;9.50;84.20;;;;;;5068913;28;20487;-78
2021/04/29 06:40:42;;;;;;;42.55;28.00;;;9.60;84.00;;;;;;5085273;28;20111;-80
2021/04/29 06:43:08;;;;;;;41.63;26.77;;;9.60;83.60;;;;;;5066985;28;20066;-82
2021/04/29 06:45:34;;;;;;;40.10;27.52;;;9.70;83.50;;;;;;5078377;27;20052;-81
2021/04/29 06:48:00;;;;;;;35.65;26.40;;;9.70;83.30;;;;;;5068836;28;20036;-81
2021/04/29 06:50:26;;;;;;;39.40;28.30;;;9.70;83.20;;;;;;5084400;28;20040;-80
2021/04/29 06:52:51;;;;;;;38.33;27.40;;;9.70;83.10;;;;;;5059970;28;21806;-81
2021/04/29 06:55:17;;;;;;;42.28;28.85;;;9.70;83.10;;;;;;5052291;28;20047;-78
2021/04/29 06:57:43;;;;;;;37.72;26.73;;;9.70;82.90;;;;;;5065114;28;20047;-79
2021/04/29 07:00:11;;;;;;;39.63;27.25;;;9.70;83.10;;;;;;5057610;28;20036;-78
2021/04/29 07:02:37;;;;;;;41.05;28.55;;;9.70;83.30;;;;;;5073913;28;20037;-77
2021/04/29 07:05:03;;;;;;;44.05;28.33;;;9.70;83.00;;;;;;5054694;28;20039;-82
2021/04/29 07:07:29;;;;;;;37.42;28.88;;;9.70;83.10;;;;;;5076012;28;20051;-81
2021/04/29 07:09:55;;;;;;;41.42;28.60;;;9.80;83.00;;;;;;5080534;28;20032;-80
2021/04/29 07:12:21;;;;;;;41.10;28.77;;;9.80;82.70;;;;;;5066572;28;20048;-78
2021/04/29 07:14:47;;;;;;;37.70;27.48;;;9.80;82.70;;;;;;5077517;28;20052;-79
2021/04/29 07:17:13;;;;;;;40.55;28.50;;;9.80;82.80;;;;;;5064600;28;20063;-80
2021/04/29 07:19:39;;;;;;;39.05;28.75;;;9.80;82.70;;;;;;5078882;28;20126;-80
2021/04/29 07:22:05;;;;;;;43.13;29.52;;;9.90;82.70;;;;;;5083373;28;20109;-81
2021/04/29 07:24:31;;;;;;;42.28;29.60;;;9.80;82.90;;;;;;5062103;28;20044;-79
2021/04/29 07:26:57;;;;;;;46.00;29.90;;;9.80;82.70;;;;;;5070210;28;20024;-81
2021/04/29 07:29:23;;;;;;;43.70;28.35;;;9.80;82.80;;;;;;5065036;28;20510;-81
2021/04/29 07:31:49;;;;;;;35.13;26.63;;;9.80;82.60;;;;;;5086724;28;20332;-81
2021/04/29 07:34:15;;;;;;;38.70;28.48;;;9.80;82.60;;;;;;5096883;27;21320;-81
2021/04/29 07:36:40;;;;;;;38.83;27.30;;;9.80;82.60;;;;;;5054732;28;20039;-80
2021/04/29 07:39:06;;;;;;;40.10;27.63;;;9.80;82.50;;;;;;5073573;28;20087;-79
2021/04/29 07:41:32;;;;;;;36.75;26.63;;;9.70;82.40;;;;;;5076464;28;20203;-79
2021/04/29 07:43:58;;;;;;;41.15;29.25;;;9.70;82.50;;;;;;5085072;28;20040;-81
2021/04/29 07:46:24;;;;;;;41.55;28.88;;;9.70;82.70;;;;;;5062353;28;20040;-80
2021/04/29 07:48:51;;;;;;;40.65;27.48;;;9.70;82.70;;;;;;5102147;28;20040;-81
2021/04/29 07:51:17;;;;;;;41.65;29.42;;;9.60;82.60;;;;;;5082208;28;20194;-80
2021/04/29 07:53:43;;;;;;;40.13;28.35;;;9.60;83.30;;;;;;5081840;28;20036;-79
2021/04/29 07:56:09;;;;;;;40.67;29.52;;;9.60;82.80;;;;;;5075123;28;20090;-82
2021/04/29 07:58:35;;;;;;;39.28;29.70;;;9.60;82.90;;;;;;5066291;28;20522;-82
2021/04/29 08:01:00;;;;;;;40.58;27.55;;;9.60;82.80;;;;;;5038244;28;20127;-81
2021/04/29 08:03:26;;;;;;;42.45;29.48;;;9.60;83.00;;;;;;5076129;28;20289;-81
2021/04/29 08:05:52;;;;;;;42.88;28.23;;;9.70;82.90;;;;;;5086063;28;20048;-80
2021/04/29 08:08:18;;;;;;;41.00;28.20;;;9.70;82.90;;;;;;5063231;28;20025;-81
2021/04/29 08:10:45;;;;;;;37.75;28.52;;;9.70;82.70;;;;;;5068002;28;20028;-82
2021/04/29 08:13:11;;;;;;;37.88;27.42;;;9.80;82.80;;;;;;5046291;28;20102;-81
2021/04/29 08:15:38;;;;;;;44.30;29.10;;;9.80;82.60;;;;;;5076743;28;20062;-82
2021/04/29 08:18:04;;;;;;;42.75;28.75;;;9.80;82.60;;;;;;5077476;28;20151;-82
2021/04/29 08:20:30;;;;;;;39.88;27.67;;;9.80;82.50;;;;;;5087911;28;20043;-82
2021/04/29 08:22:56;;;;;;;38.42;27.80;;;9.90;82.50;;;;;;5073438;28;20048;-82
2021/04/29 08:25:23;;;;;;;36.65;28.27;;;9.90;82.50;;;;;;5074133;28;20070;-81
2021/04/29 08:27:51;;;;;;;39.30;28.42;;;10.00;82.50;;;;;;5102598;27;20032;-82
2021/04/29 08:30:18;;;;;;;40.97;28.95;;;10.00;82.50;;;;;;5062815;28;20442;-82
2021/04/29 08:32:44;;;;;;;42.45;30.10;;;10.00;82.40;;;;;;5082302;28;20066;-80
2021/04/29 08:35:10;;;;;;;37.17;28.45;;;10.00;82.60;;;;;;5078965;28;20044;-82
2021/04/29 08:37:36;;;;;;;37.58;28.33;;;10.00;82.90;;;;;;5069866;28;20324;-82
2021/04/29 08:40:03;;;;;;;38.08;29.45;;;10.00;83.10;;;;;;5063765;28;20042;-81
2021/04/29 08:42:30;;;;;;;46.22;32.97;;;10.00;83.30;;;;;;5069610;28;20052;-82
2021/04/29 08:44:56;;;;;;;47.22;33.65;;;10.00;83.50;;;;;;5079944;28;20516;-81
2021/04/29 08:47:21;;;;;;;42.10;30.67;;;10.00;84.10;;;;;;5063627;28;20052;-81
2021/04/29 08:49:47;;;;;;;41.13;30.77;;;10.00;84.30;;;;;;5094896;28;20064;-79
2021/04/29 08:52:15;;;;;;;52.53;35.42;;;9.90;84.60;;;;;;5082454;28;20032;-80
2021/04/29 08:54:46;;;;;;;42.42;31.23;;;9.90;85.30;;;;;;5077038;28;20074;-79
2021/04/29 08:57:12;;;;;;;44.05;31.50;;;9.90;85.80;;;;;;5086064;28;20130;-79
2021/04/29 08:59:39;;;;;;;49.25;33.47;;;9.90;86.00;;;;;;5081730;28;20044;-80
2021/04/29 09:02:06;;;;;;;52.70;38.63;;;9.90;85.90;;;;;;5094010;28;20036;-79
2021/04/29 09:04:42;;;;;;;58.90;38.95;;;9.80;86.40;;;;;;5076871;28;20084;-79
2021/04/29 09:07:16;;;;;;;56.05;36.50;;;9.80;87.10;;;;;;5097955;28;20067;-79
2021/04/29 09:09:43;;;;;;;55.22;38.15;;;9.70;87.50;;;;;;5099812;28;20039;-80
2021/04/29 09:12:10;;;;;;;52.45;39.55;;;9.70;87.80;;;;;;5096268;28;20058;-79
2021/04/29 09:14:39;;;;;;;48.85;34.88;;;9.70;88.20;;;;;;5099166;28;20035;-81
2021/04/29 09:17:05;;;;;;;44.72;31.60;;;9.60;88.10;;;;;;5100914;28;20519;-79
2021/04/29 09:19:34;;;;;;;43.42;32.20;;;9.60;88.10;;;;;;5084766;28;20486;-81
2021/04/29 09:22:01;;;;;;;46.17;33.53;;;9.50;88.00;;;;;;5098545;28;20411;-80
2021/04/29 09:24:39;;;;;;;47.55;35.78;;;9.50;88.00;;;;;;5105069;28;20041;-79
2021/04/29 09:27:28;;;;;;;44.17;33.45;;;9.50;88.00;;;;;;5101916;28;20042;-79
2021/04/29 09:30:01;;;;;;;47.55;34.85;;;9.40;88.50;;;;;;5102603;28;20023;-79
2021/04/29 09:32:32;;;;;;;57.28;37.72;;;9.40;88.50;;;;;;5089916;28;20036;-81
2021/04/29 09:34:59;;;;;;;52.40;34.30;;;9.40;88.90;;;;;;5079895;28;20126;-80
2021/04/29 09:37:33;;;;;;;52.67;38.55;;;9.30;89.10;;;;;;5079005;28;20043;-80
2021/04/29 09:40:01;;;;;;;68.63;43.53;;;9.40;89.40;;;;;;5102627;27;20036;-79
2021/04/29 09:42:35;;;;;;;59.03;39.42;;;9.30;89.70;;;;;;5080047;28;20064;-79
2021/04/29 09:45:04;;;;;;;65.10;43.75;;;9.30;90.00;;;;;;5100178;27;20036;-79
2021/04/29 09:47:30;;;;;;;61.03;39.63;;;9.30;90.10;;;;;;5094943;27;20032;-78
2021/04/29 09:49:57;;;;;;;57.22;39.67;;;9.30;90.20;;;;;;5080867;28;20162;-79
2021/04/29 09:52:25;;;;;;;65.78;45.42;;;9.30;90.30;;;;;;5086640;28;20054;-80
2021/04/29 09:54:53;;;;;;;60.65;40.72;;;9.30;90.40;;;;;;5075920;28;20321;-78
2021/04/29 09:57:28;;;;;;;57.40;40.60;;;9.30;90.40;;;;;;5092281;28;20074;-79
2021/04/29 09:59:58;;;;;;;58.50;40.08;;;9.30;90.50;;;;;;5062837;28;20032;-79
2021/04/29 10:02:28;;;;;;;67.88;46.97;;;9.30;90.60;;;;;;5077291;28;20044;-79
2021/04/29 10:04:54;;;;;;;68.50;46.58;;;9.30;90.60;;;;;;5077217;28;20039;-79
2021/04/29 10:07:21;;;;;;;93.60;53.72;;;9.30;90.70;;;;;;5081228;27;20036;-78
2021/04/29 10:09:49;;;;;;;119.63;58.90;;;9.40;91.20;;;;;;5083066;28;20044;-78
2021/04/29 10:12:17;;;;;;;76.70;49.92;;;9.30;91.30;;;;;;5076120;28;20059;-78
2021/04/29 10:14:46;;;;;;;85.43;54.35;;;9.40;91.50;;;;;;5079804;28;20387;-78
2021/04/29 10:17:14;;;;;;;83.32;53.10;;;9.40;91.40;;;;;;5082087;28;20032;-78
2021/04/29 10:19:43;;;;;;;73.97;47.95;;;9.50;91.50;;;;;;5081882;28;20044;-78
2021/04/29 10:22:09;;;;;;;70.20;46.13;;;9.50;91.60;;;;;;5081546;28;20040;-76
2021/04/29 10:24:36;;;;;;;77.18;50.28;;;9.50;91.50;;;;;;5091424;28;20107;-77
2021/04/29 10:27:07;;;;;;;77.05;51.15;;;9.60;91.60;;;;;;5083031;28;20471;-78
2021/04/29 10:29:34;;;;;;;73.97;50.65;;;9.60;91.90;;;;;;5081032;28;20449;-78
2021/04/29 10:32:02;;;;;;;70.18;46.58;;;9.70;91.80;;;;;;5076928;28;20071;-76
2021/04/29 10:34:40;;;;;;;74.97;49.33;;;9.70;91.60;;;;;;5078907;28;20032;-79
2021/04/29 10:37:36;;;;;;;77.80;50.35;;;9.70;91.90;;;;;;5083927;28;20542;-76
2021/04/29 10:40:03;;;;;;;76.82;49.08;;;9.70;92.00;;;;;;5116073;22;20083;-77
2021/04/29 10:42:42;;;;;;;73.85;50.78;;;9.60;91.90;;;;;;5004531;28;20065;-77
2021/04/29 10:45:10;;;;;;;83.32;53.65;;;9.60;91.80;;;;;;4999076;28;20129;-75
2021/04/29 10:47:37;;;;;;;83.13;52.40;;;9.60;91.80;;;;;;5006067;28;20045;-75
2021/04/29 10:50:07;;;;;;;88.47;55.08;;;9.60;92.10;;;;;;4976531;28;20636;-77
2021/04/29 10:52:52;;;;;;;80.60;50.90;;;9.60;92.00;;;;;;4978959;28;20034;-77
2021/04/29 10:55:27;;;;;;;83.72;53.70;;;9.50;92.10;;;;;;4981781;28;20038;-78
2021/04/29 10:57:54;;;;;;;81.55;53.08;;;9.50;92.10;;;;;;4977737;28;20416;-76
2021/04/29 11:00:21;;;;;;;75.25;51.13;;;9.50;92.00;;;;;;4973828;28;20041;-76
2021/04/29 11:03:01;;;;;;;81.78;52.20;;;9.40;92.00;;;;;;4981957;28;20034;-76
2021/04/29 11:05:28;;;;;;;82.07;52.92;;;9.40;92.00;;;;;;4978662;28;20047;-76
2021/04/29 11:07:54;;;;;;;85.30;53.63;;;9.30;92.00;;;;;;4974996;28;20133;-76
2021/04/29 11:10:25;;;;;;;82.55;54.40;;;9.20;92.00;;;;;;4983302;28;20129;-76
2021/04/29 11:12:56;;;;;;;83.30;54.67;;;9.20;92.10;;;;;;4981754;28;20106;-75
2021/04/29 11:15:32;;;;;;;88.45;54.75;;;9.20;92.10;;;;;;4977446;28;20053;-76
2021/04/29 11:18:03;;;;;;;82.15;53.25;;;9.10;92.20;;;;;;5002684;28;20030;-76
2021/04/29 11:20:45;;;;;;;77.00;50.65;;;9.10;92.20;;;;;;4975674;28;20103;-75
2021/04/29 11:23:13;;;;;;;98.60;58.05;;;9.10;92.20;;;;;;4974199;28;20062;-75
2021/04/29 11:25:40;;;;;;;99.05;59.38;;;9.10;92.10;;;;;;4971670;28;20100;-76
2021/04/29 11:28:06;;;;;;;109.32;63.13;;;9.00;92.10;;;;;;4981205;28;20437;-76
2021/04/29 11:30:33;;;;;;;100.53;58.90;;;8.90;92.10;;;;;;4997957;28;20038;-75
2021/04/29 11:33:04;;;;;;;102.45;58.78;;;8.90;92.40;;;;;;4983161;28;20191;-78
2021/04/29 11:35:36;;;;;;;104.15;60.42;;;8.90;92.50;;;;;;4978787;28;20038;-75
2021/04/29 11:38:04;;;;;;;135.73;69.25;;;8.90;92.50;;;;;;4980792;28;20350;-75
2021/04/29 11:40:32;;;;;;;136.55;69.05;;;8.90;92.50;;;;;;4975936;28;20053;-78
2021/04/29 11:42:59;;;;;;;104.78;63.88;;;8.90;92.70;;;;;;4976088;28;20042;-80
2021/04/29 11:45:39;;;;;;;106.15;62.97;;;8.90;92.90;;;;;;4971109;28;20061;-77
2021/04/29 11:48:12;;;;;;;108.25;66.00;;;8.90;92.90;;;;;;4983600;28;20030;-79
2021/04/29 11:50:42;;;;;;;123.93;69.00;;;8.90;92.90;;;;;;4985453;28;20508;-76
2021/04/29 11:53:22;;;;;;;114.43;65.18;;;8.90;92.80;;;;;;4987034;28;20570;-77
2021/04/29 11:55:55;;;;;;;109.28;62.72;;;8.90;93.20;;;;;;4983984;28;20393;-78
2021/04/29 11:58:21;;;;;;;94.68;57.63;;;8.90;93.60;;;;;;4996684;28;20404;-76
2021/04/29 12:00:49;;;;;;;149.70;74.07;;;8.90;93.60;;;;;;4966493;28;20275;-77
2021/04/29 12:03:16;;;;;;;124.47;67.45;;;8.90;93.70;;;;;;4983574;28;20105;-75
2021/04/29 12:05:47;;;;;;;133.52;69.40;;;8.90;93.90;;;;;;4987372;28;20061;-78
2021/04/29 12:08:21;;;;;;;158.57;73.88;;;8.90;94.00;;;;;;4986135;28;20485;-76
2021/04/29 12:11:10;;;;;;;116.32;63.85;;;8.90;94.20;;;;;;4986502;28;20614;-75
2021/04/29 12:13:54;;;;;;;120.32;63.33;;;9.00;94.40;;;;;;4983690;28;20066;-75
2021/04/29 12:16:26;;;;;;;118.97;64.40;;;9.00;94.40;;;;;;4972414;28;20058;-74
2021/04/29 12:18:55;;;;;;;102.35;60.70;;;9.10;94.40;;;;;;5008388;28;20242;-75
2021/04/29 12:21:23;;;;;;;97.75;57.85;;;9.10;94.50;;;;;;4972856;28;20069;-75
2021/04/29 12:24:15;;;;;;;117.68;63.97;;;9.20;94.60;;;;;;4983927;28;20042;-77
2021/04/29 12:26:42;;;;;;;92.40;54.65;;;9.20;94.70;;;;;;4976117;28;20053;-78
2021/04/29 12:29:10;;;;;;;94.38;56.20;;;9.30;94.70;;;;;;4981913;28;20057;-78
2021/04/29 12:31:38;;;;;;;78.30;49.40;;;9.30;94.70;;;;;;4983431;28;20038;-74
2021/04/29 12:34:14;;;;;;;96.53;54.50;;;9.30;94.90;;;;;;4981754;28;20116;-78
2021/04/29 12:37:00;;;;;;;88.07;51.15;;;9.30;94.80;;;;;;4995831;28;20038;-75
2021/04/29 12:39:29;;;;;;;76.18;48.25;;;9.40;95.00;;;;;;4990604;28;20039;-77